Time;durP1;ratioP1;P1;durP2;ratioP2;P2;SDS_P1;SDS_P2;PMS_P1;PMS_P2;Temp;Humidity;BMP_temperature;BMP_pressure;BME280_temperature;BME280_humidity;BME280_pressure;Samples;Min_cycle;Max_cycle;Signal;HPM_P1;HPM_P2
2023/08/05 00:00:53;;;;;;;6.60;5.95;;;;;;;26.25;56.39;65769.94;5071553;28;20667;-51
2023/08/05 00:03:19;;;;;;;6.63;5.80;;;;;;;26.28;56.16;65773.25;5071625;28;20215;-50
2023/08/05 00:05:45;;;;;;;6.18;5.57;;;;;;;26.32;56.45;65777.16;5070865;28;20495;-54
2023/08/05 00:08:10;;;;;;;7.80;6.20;;;;;;;26.25;56.60;65771.97;5071233;28;20669;-51
2023/08/05 00:10:36;;;;;;;7.80;6.10;;;;;;;26.24;56.65;65770.84;5053058;28;20208;-51
2023/08/05 00:13:01;;;;;;;7.88;6.18;;;;;;;26.12;56.89;65755.47;5071161;28;20698;-53
2023/08/05 00:15:27;;;;;;;5.93;5.30;;;;;;;26.15;57.07;65760.84;5070891;28;20213;-51
2023/08/05 00:17:53;;;;;;;11.13;6.30;;;;;;;26.09;57.33;65752.16;5070886;28;20577;-54
2023/08/05 00:20:18;;;;;;;7.18;5.25;;;;;;;25.99;57.40;65741.03;5071325;28;20201;-53
2023/08/05 00:22:43;;;;;;;8.85;6.72;;;;;;;25.97;57.80;65741.41;5070601;28;20224;-52
2023/08/05 00:25:09;;;;;;;6.65;5.57;;;;;;;25.87;58.17;65727.72;5070621;28;20572;-51
2023/08/05 00:27:35;;;;;;;8.80;5.95;;;;;;;25.85;58.21;65724.94;5069399;28;20223;-51
2023/08/05 00:30:00;;;;;;;8.55;5.88;;;;;;;25.86;58.28;65728.63;5071166;28;20575;-51
2023/08/05 00:32:29;;;;;;;6.95;5.75;;;;;;;25.82;58.28;65721.59;5071045;28;20771;-51
2023/08/05 00:34:55;;;;;;;6.65;6.00;;;;;;;25.80;58.76;65722.50;5070397;28;20248;-53
2023/08/05 00:37:21;;;;;;;7.30;6.53;;;;;;;25.71;58.62;65707.91;5070883;28;20611;-49
2023/08/05 00:39:46;;;;;;;6.88;5.88;;;;;;;25.69;59.18;65710.84;5052699;28;20201;-50
2023/08/05 00:42:12;;;;;;;5.93;5.30;;;;;;;25.62;59.30;65702.53;5070659;28;20812;-50
2023/08/05 00:44:37;;;;;;;8.82;5.75;;;;;;;25.61;59.62;65701.41;5070338;28;20276;-50
2023/08/05 00:47:03;;;;;;;7.72;6.40;;;;;;;25.61;59.55;65701.97;5052415;28;20243;-50
2023/08/05 00:49:30;;;;;;;6.10;5.53;;;;;;;25.59;59.61;65697.16;5052547;28;20215;-51
2023/08/05 00:51:56;;;;;;;7.22;5.72;;;;;;;25.56;59.82;65695.88;5070493;28;20204;-53
2023/08/05 00:54:22;;;;;;;7.15;6.15;;;;;;;25.54;59.83;65691.06;5070434;28;20224;-52
2023/08/05 00:56:48;;;;;;;7.97;5.75;;;;;;;25.53;59.89;65693.09;5070617;28;20747;-51
2023/08/05 00:59:13;;;;;;;6.43;5.82;;;;;;;25.49;60.06;65688.66;5070812;28;20219;-51
2023/08/05 01:01:39;;;;;;;5.88;5.00;;;;;;;25.46;60.52;65682.19;5070713;28;20675;-51
2023/08/05 01:04:04;;;;;;;7.40;5.97;;;;;;;25.26;61.25;65663.09;5070090;28;20209;-51
2023/08/05 01:06:32;;;;;;;7.85;5.88;;;;;;;25.29;60.76;65665.88;5052444;28;20679;-51
2023/08/05 01:08:59;;;;;;;7.70;6.68;;;;;;;25.28;61.13;65664.75;5070467;28;20353;-51
2023/08/05 01:11:24;;;;;;;7.93;5.65;;;;;;;25.30;60.87;65664.41;5070203;28;20257;-51
2023/08/05 01:13:50;;;;;;;6.65;5.95;;;;;;;25.16;61.44;65651.44;5070187;28;20679;-51
2023/08/05 01:16:16;;;;;;;10.77;5.90;;;;;;;25.18;61.24;65651.09;5069752;28;20239;-51
2023/08/05 01:18:43;;;;;;;5.93;5.40;;;;;;;25.14;61.68;65649.78;5070443;28;20208;-51
2023/08/05 01:21:36;;;;;;;6.40;5.78;;;;;;;25.05;61.84;65639.25;5069968;28;20213;-52
2023/08/05 01:24:24;;;;;;;7.07;5.72;;;;;;;24.97;62.14;65630.91;5048910;28;20228;-51
2023/08/05 01:26:49;;;;;;;7.97;6.00;;;;;;;24.97;62.29;65628.34;5070162;28;20345;-50
2023/08/05 01:29:15;;;;;;;6.80;6.20;;;;;;;24.95;62.75;65626.09;5070220;28;20192;-50
2023/08/05 01:31:45;;;;;;;8.05;5.70;;;;;;;25.01;62.38;65632.22;5069686;28;20265;-50
2023/08/05 01:34:12;;;;;;;7.45;5.90;;;;;;;24.98;62.37;65632.03;5069559;28;20224;-52
2023/08/05 01:36:37;;;;;;;6.25;5.65;;;;;;;24.89;62.52;65620.00;5069677;28;20255;-51
2023/08/05 01:39:03;;;;;;;6.72;5.97;;;;;;;24.84;63.20;65614.47;5071080;28;20583;-52
2023/08/05 01:41:28;;;;;;;7.53;5.90;;;;;;;24.74;63.42;65605.97;5073629;28;20228;-51
2023/08/05 01:43:54;;;;;;;6.57;5.95;;;;;;;24.79;63.43;65610.94;5073356;28;20216;-51
2023/08/05 01:46:19;;;;;;;7.43;6.00;;;;;;;24.84;63.23;65613.91;5055289;28;20288;-54
2023/08/05 01:48:45;;;;;;;7.75;5.70;;;;;;;24.73;63.36;65602.25;5073830;28;20201;-51
2023/08/05 01:51:11;;;;;;;6.78;6.07;;;;;;;24.69;64.02;65597.81;5073661;28;20705;-51
2023/08/05 01:53:36;;;;;;;7.10;5.88;;;;;;;24.64;64.47;65591.72;5073774;28;20193;-51
2023/08/05 01:56:01;;;;;;;6.32;5.72;;;;;;;24.61;64.72;65590.94;5073002;28;20219;-51
2023/08/05 01:58:27;;;;;;;7.88;6.07;;;;;;;24.55;64.87;65582.28;5073156;28;20287;-51
2023/08/05 02:00:53;;;;;;;8.23;6.32;;;;;;;24.49;64.97;65575.63;5072952;28;20208;-51
2023/08/05 02:03:19;;;;;;;7.22;6.07;;;;;;;24.45;65.01;65571.19;5055113;28;20227;-56
2023/08/05 02:05:46;;;;;;;6.32;5.70;;;;;;;24.52;65.53;65578.41;5072959;28;20213;-50
2023/08/05 02:08:11;;;;;;;9.43;5.90;;;;;;;24.46;65.43;65572.28;5073231;28;20220;-53
2023/08/05 02:10:37;;;;;;;6.57;5.32;;;;;;;24.49;65.53;65577.63;5073241;28;20208;-50
2023/08/05 02:13:07;;;;;;;8.68;5.47;;;;;;;24.48;65.71;65577.09;5054837;28;20609;-52
2023/08/05 02:15:32;;;;;;;7.95;6.07;;;;;;;24.39;65.73;65567.13;5072761;28;20238;-53
2023/08/05 02:17:58;;;;;;;8.20;6.05;;;;;;;24.29;66.03;65556.03;5055085;28;20738;-51
2023/08/05 02:20:23;;;;;;;6.40;5.65;;;;;;;24.35;66.54;65559.53;5073311;28;20196;-52
2023/08/05 02:22:49;;;;;;;6.18;5.68;;;;;;;24.35;66.25;65562.69;5054609;28;20691;-51
2023/08/05 02:25:14;;;;;;;6.43;5.82;;;;;;;24.17;67.34;65543.28;5072492;28;20687;-51
2023/08/05 02:27:40;;;;;;;6.28;5.38;;;;;;;24.20;67.52;65545.50;5073057;28;20562;-52
2023/08/05 02:30:06;;;;;;;6.78;5.95;;;;;;;24.11;67.46;65536.06;5072823;28;20208;-51
2023/08/05 02:32:31;;;;;;;6.13;5.53;;;;;;;24.25;66.42;65551.59;5054835;28;20353;-50
2023/08/05 02:34:57;;;;;;;9.88;6.03;;;;;;;24.25;66.53;65551.59;5072441;28;20739;-51
2023/08/05 02:37:22;;;;;;;7.25;6.50;;;;;;;24.17;66.35;65542.72;5054620;28;20702;-51
2023/08/05 02:39:48;;;;;;;6.80;5.80;;;;;;;24.11;67.01;65533.50;5072849;28;20200;-50
2023/08/05 02:42:13;;;;;;;6.82;6.00;;;;;;;24.11;66.93;65536.06;5072292;28;20221;-50
2023/08/05 02:44:39;;;;;;;6.63;6.03;;;;;;;24.08;67.31;65530.16;5072326;28;20200;-51
2023/08/05 02:47:04;;;;;;;6.75;6.13;;;;;;;24.13;67.22;65535.72;5072597;28;20212;-50
2023/08/05 02:49:31;;;;;;;7.55;6.00;;;;;;;24.07;68.11;65531.63;5072863;28;20211;-51
2023/08/05 02:51:57;;;;;;;6.85;6.15;;;;;;;24.03;67.66;65527.19;5071429;28;20220;-50
2023/08/05 02:54:22;;;;;;;7.03;5.57;;;;;;;23.85;68.22;65507.22;5071871;28;20212;-50
2023/08/05 02:56:48;;;;;;;8.40;5.95;;;;;;;23.95;68.48;65518.31;5072017;28;20251;-51
2023/08/05 02:59:13;;;;;;;6.07;5.47;;;;;;;23.86;68.30;65508.31;5072174;28;20212;-52
2023/08/05 03:01:39;;;;;;;6.60;5.90;;;;;;;23.76;69.20;65497.22;5072304;28;20410;-52
2023/08/05 03:04:05;;;;;;;8.30;5.60;;;;;;;23.88;68.10;65507.97;5053352;28;20209;-51
2023/08/05 03:06:30;;;;;;;7.13;6.43;;;;;;;23.82;68.81;65504.44;5072182;28;20205;-53
2023/08/05 03:08:56;;;;;;;7.80;6.20;;;;;;;23.73;68.95;65496.50;5072311;28;20201;-51
2023/08/05 03:11:21;;;;;;;7.75;6.32;;;;;;;23.70;69.72;65490.59;5053879;28;20223;-51
2023/08/05 03:13:47;;;;;;;9.77;6.60;;;;;;;23.63;70.11;65480.25;5071796;28;20746;-51
2023/08/05 03:16:14;;;;;;;6.75;6.15;;;;;;;23.71;69.58;65491.69;5071960;28;20229;-58
2023/08/05 03:18:40;;;;;;;6.85;6.15;;;;;;;23.68;69.25;65488.94;5072352;28;20678;-54
2023/08/05 03:21:06;;;;;;;6.05;5.30;;;;;;;23.63;70.92;65482.84;5071865;28;20240;-54
2023/08/05 03:23:31;;;;;;;6.72;5.93;;;;;;;23.73;71.04;65493.91;5071551;28;20251;-50
2023/08/05 03:25:57;;;;;;;8.38;5.93;;;;;;;23.86;69.40;65508.31;5071572;28;20228;-52
2023/08/05 03:28:22;;;;;;;8.35;6.75;;;;;;;23.76;70.61;65497.78;5071960;28;20253;-51
2023/08/05 03:30:48;;;;;;;7.88;6.20;;;;;;;23.92;68.77;65512.94;5071694;28;20579;-52
2023/08/05 03:33:13;;;;;;;8.00;6.22;;;;;;;23.71;69.26;65489.13;5071643;28;20200;-52
2023/08/05 03:35:45;;;;;;;6.40;5.55;;;;;;;23.57;70.04;65474.16;5053389;28;20681;-50
2023/08/05 03:38:11;;;;;;;6.80;6.20;;;;;;;23.54;70.87;65472.84;5071553;28;20672;-51
2023/08/05 03:40:36;;;;;;;6.80;6.10;;;;;;;23.51;70.40;65466.97;5071385;28;20201;-50
2023/08/05 03:43:02;;;;;;;6.65;5.95;;;;;;;23.51;69.83;65466.97;5071320;28;20208;-51
2023/08/05 03:45:28;;;;;;;7.90;6.32;;;;;;;23.55;69.78;65468.81;5071205;28;20298;-51
2023/08/05 03:47:55;;;;;;;7.03;6.32;;;;;;;23.51;69.98;65470.09;5071254;28;20299;-51
2023/08/05 03:50:20;;;;;;;8.52;6.30;;;;;;;23.46;70.41;65461.41;5071733;28;20284;-51
2023/08/05 03:52:49;;;;;;;6.72;6.03;;;;;;;23.62;70.10;65482.28;5071081;28;20766;-54
2023/08/05 03:55:16;;;;;;;6.50;5.88;;;;;;;23.77;69.44;65500.94;5070885;28;20665;-51
2023/08/05 03:57:41;;;;;;;8.02;5.93;;;;;;;23.70;69.63;65488.56;5071919;28;20205;-52
2023/08/05 04:00:11;;;;;;;6.63;5.93;;;;;;;23.67;69.49;65484.69;5071154;28;20675;-52
2023/08/05 04:02:37;;;;;;;11.00;5.97;;;;;;;23.60;70.29;65477.50;5071035;28;20239;-51
2023/08/05 04:05:04;;;;;;;6.97;5.93;;;;;;;23.65;69.37;65483.03;5070923;28;20265;-51
2023/08/05 04:07:36;;;;;;;8.50;5.93;;;;;;;23.73;69.21;65496.50;5071386;28;20227;-50
2023/08/05 04:10:02;;;;;;;11.88;5.70;;;;;;;23.61;69.31;65478.59;5071149;28;20297;-52
2023/08/05 04:12:28;;;;;;;6.75;6.10;;;;;;;23.72;69.48;65490.78;5070861;28;20209;-50
2023/08/05 04:14:57;;;;;;;8.65;6.00;;;;;;;23.72;68.51;65490.22;5070806;28;20222;-50
2023/08/05 04:17:23;;;;;;;8.45;5.20;;;;;;;23.63;69.09;65483.41;5071221;28;20220;-51
2023/08/05 04:19:50;;;;;;;7.05;6.18;;;;;;;23.72;68.39;65492.81;5070731;28;20623;-51
2023/08/05 04:22:19;;;;;;;6.47;5.88;;;;;;;23.76;69.18;65497.22;5070940;28;20242;-51
2023/08/05 04:24:45;;;;;;;6.53;5.93;;;;;;;23.85;67.72;65507.22;5070796;28;20200;-50
2023/08/05 04:27:10;;;;;;;6.93;5.40;;;;;;;23.90;67.53;65510.19;5070963;28;20220;-49
2023/08/05 04:29:36;;;;;;;7.18;5.93;;;;;;;23.90;67.84;65510.75;5070690;28;20224;-51
2023/08/05 04:32:01;;;;;;;6.80;6.13;;;;;;;23.83;67.74;65505.00;5070543;28;20200;-51
2023/08/05 04:34:29;;;;;;;8.70;7.63;;;;;;;23.84;67.86;65504.09;5070497;28;20216;-51
2023/08/05 04:36:54;;;;;;;6.63;5.93;;;;;;;23.88;67.96;65511.09;5070542;28;20221;-54
2023/08/05 04:39:20;;;;;;;7.75;5.75;;;;;;;23.86;67.71;65508.31;5070452;28;20201;-55
2023/08/05 04:41:46;;;;;;;9.25;6.05;;;;;;;23.90;67.60;65510.19;5070307;28;20691;-53
2023/08/05 04:44:11;;;;;;;8.18;6.25;;;;;;;23.83;67.94;65505.56;5070396;28;20241;-50
2023/08/05 04:46:37;;;;;;;7.55;5.68;;;;;;;23.88;67.96;65508.53;5070781;28;20204;-50
2023/08/05 04:49:05;;;;;;;6.60;5.22;;;;;;;23.78;69.11;65499.44;5070988;28;20207;-51
2023/08/05 04:51:31;;;;;;;10.05;6.22;;;;;;;23.85;68.84;65507.22;5070218;28;20212;-50
2023/08/05 04:53:56;;;;;;;6.43;5.80;;;;;;;23.95;68.58;65518.31;5070465;28;20184;-51
2023/08/05 04:56:25;;;;;;;7.53;5.60;;;;;;;24.09;67.12;65533.84;5070358;28;20682;-53
2023/08/05 04:58:51;;;;;;;9.38;6.15;;;;;;;24.09;67.10;65533.84;5070168;28;20207;-54
2023/08/05 05:01:17;;;;;;;8.07;5.35;;;;;;;24.13;67.47;65535.72;5070081;28;20216;-51
2023/08/05 05:03:46;;;;;;;7.53;6.15;;;;;;;24.16;67.38;65541.59;5070374;28;20201;-54
2023/08/05 05:06:12;;;;;;;8.27;5.90;;;;;;;24.17;66.42;65540.69;5052539;28;20213;-51
2023/08/05 05:08:45;;;;;;;8.30;5.97;;;;;;;24.17;66.15;65540.13;5070339;28;20204;-52
2023/08/05 05:11:10;;;;;;;6.75;6.05;;;;;;;24.25;70.47;65548.44;5070260;28;20252;-56
2023/08/05 05:13:38;;;;;;;7.10;6.40;;;;;;;24.34;67.19;65558.97;5070288;28;20284;-49
2023/08/05 05:16:04;;;;;;;7.38;5.72;;;;;;;24.41;65.80;65566.75;5055597;28;20636;-60
2023/08/05 05:18:29;;;;;;;7.32;6.30;;;;;;;24.44;64.64;65572.66;5074155;28;20231;-51
2023/08/05 05:20:55;;;;;;;6.40;5.72;;;;;;;24.45;64.54;65573.22;5055783;28;20254;-51
2023/08/05 05:23:21;;;;;;;8.23;5.63;;;;;;;24.46;64.06;65571.75;5073825;28;20201;-51
2023/08/05 05:25:46;;;;;;;8.23;6.30;;;;;;;24.54;64.29;65581.19;5073741;28;20215;-50
2023/08/05 05:28:11;;;;;;;7.72;5.35;;;;;;;24.57;64.17;65587.06;5055632;28;20220;-50
2023/08/05 05:30:37;;;;;;;6.88;5.80;;;;;;;24.63;64.44;65591.16;5073487;28;20670;-49
2023/08/05 05:33:03;;;;;;;9.60;6.00;;;;;;;24.78;63.80;65604.69;5073667;28;20208;-51
2023/08/05 05:35:29;;;;;;;7.00;6.40;;;;;;;24.81;64.12;65611.13;5073427;28;20733;-51
2023/08/05 05:37:54;;;;;;;6.45;5.80;;;;;;;24.92;62.64;65622.78;5073783;28;20755;-51
2023/08/05 05:40:20;;;;;;;6.63;5.30;;;;;;;24.85;62.50;65618.16;5073517;28;20196;-51
2023/08/05 05:42:48;;;;;;;6.90;5.80;;;;;;;24.89;62.44;65622.59;5073369;28;20686;-50
2023/08/05 05:45:14;;;;;;;6.20;5.35;;;;;;;24.83;62.45;65613.34;5073235;28;20346;-51
2023/08/05 05:47:40;;;;;;;8.00;5.60;;;;;;;24.84;62.17;65614.47;5073699;28;20619;-51
2023/08/05 05:50:08;;;;;;;7.20;5.93;;;;;;;24.89;62.48;65620.00;5073083;28;20287;-51
2023/08/05 05:52:36;;;;;;;6.20;5.60;;;;;;;24.98;61.87;65630.00;5073129;28;20259;-49
2023/08/05 05:55:05;;;;;;;6.97;6.05;;;;;;;25.07;61.60;65641.47;5073479;28;20209;-51
2023/08/05 05:57:30;;;;;;;8.63;5.97;;;;;;;25.16;61.24;65648.88;5073164;28;20213;-49
2023/08/05 05:59:56;;;;;;;6.72;6.00;;;;;;;25.18;62.02;65653.66;5073350;28;20204;-50
2023/08/05 06:02:22;;;;;;;9.90;6.85;;;;;;;25.35;62.38;65669.97;5072984;28;20227;-50
2023/08/05 06:04:48;;;;;;;7.53;6.13;;;;;;;25.32;63.58;65667.19;5073628;28;20219;-51
2023/08/05 06:07:14;;;;;;;9.02;6.00;;;;;;;25.46;63.08;65685.31;5055110;28;20211;-50
2023/08/05 06:09:39;;;;;;;7.47;5.65;;;;;;;25.69;59.67;65708.25;5072979;28;20690;-53
2023/08/05 06:12:07;;;;;;;7.82;5.80;;;;;;;25.67;60.35;65708.09;5073260;28;20209;-51
2023/08/05 06:14:33;;;;;;;9.25;6.05;;;;;;;25.63;60.31;65701.59;5073309;28;20707;-53
2023/08/05 06:16:59;;;;;;;5.90;5.40;;;;;;;25.71;59.11;65713.06;5072813;28;20222;-55
2023/08/05 06:19:24;;;;;;;6.55;5.95;;;;;;;25.86;61.16;65726.03;5072786;28;20188;-50
2023/08/05 06:21:50;;;;;;;7.20;5.95;;;;;;;25.83;60.03;65722.72;5072993;28;20213;-51
2023/08/05 06:24:15;;;;;;;8.95;6.40;;;;;;;25.86;59.63;65724.00;5072955;28;20683;-51
2023/08/05 06:26:41;;;;;;;7.13;6.43;;;;;;;26.01;59.35;65743.25;5072849;28;20760;-55
2023/08/05 06:29:07;;;;;;;8.80;6.80;;;;;;;25.98;60.07;65739.91;5054702;28;20207;-51
2023/08/05 06:31:32;;;;;;;10.38;6.55;;;;;;;26.13;59.23;65756.59;5072678;28;20225;-55
2023/08/05 06:33:57;;;;;;;7.65;5.97;;;;;;;26.21;58.79;65768.06;5072811;28;20682;-51
2023/08/05 06:36:23;;;;;;;7.45;6.60;;;;;;;26.17;59.64;65761.03;5072761;28;20566;-51
2023/08/05 06:38:48;;;;;;;8.55;6.50;;;;;;;26.25;59.76;65769.94;5072509;28;20200;-51
2023/08/05 06:41:14;;;;;;;8.13;7.07;;;;;;;26.29;59.40;65776.97;5072328;28;20220;-53
2023/08/05 06:43:40;;;;;;;7.70;6.93;;;;;;;26.42;58.16;65788.81;5072504;28;20705;-53
2023/08/05 06:46:05;;;;;;;7.93;6.43;;;;;;;26.31;58.01;65778.63;5072576;28;20208;-53
2023/08/05 06:48:31;;;;;;;9.07;7.05;;;;;;;26.25;58.24;65769.38;5072971;28;20676;-52
2023/08/05 06:50:56;;;;;;;8.60;7.70;;;;;;;26.38;59.64;65784.34;5072289;28;20189;-53
2023/08/05 06:53:22;;;;;;;7.38;6.53;;;;;;;26.60;58.09;65810.84;5072344;28;20635;-54
2023/08/05 06:55:47;;;;;;;7.72;6.97;;;;;;;26.63;57.10;65809.56;5072098;28;20232;-53
2023/08/05 06:58:13;;;;;;;7.00;6.30;;;;;;;26.67;57.62;65812.88;5072481;28;20229;-57
2023/08/05 07:00:39;;;;;;;7.22;6.50;;;;;;;26.76;58.29;65826.06;5072013;28;20275;-52
2023/08/05 07:03:04;;;;;;;7.93;6.80;;;;;;;26.86;56.97;65836.63;5072214;28;20220;-53
2023/08/05 07:05:30;;;;;;;8.82;6.60;;;;;;;26.84;56.89;65832.38;5071953;28;20637;-51
2023/08/05 07:07:55;;;;;;;7.30;6.57;;;;;;;26.90;57.16;65841.63;5072294;28;20209;-53
2023/08/05 07:10:21;;;;;;;8.02;6.05;;;;;;;27.08;56.61;65861.63;5071942;28;20261;-52
2023/08/05 07:12:46;;;;;;;7.78;7.07;;;;;;;27.18;56.62;65870.16;5071915;28;20255;-57
2023/08/05 07:15:12;;;;;;;6.95;6.30;;;;;;;27.25;56.05;65879.97;5071570;28;20224;-52
2023/08/05 07:17:39;;;;;;;6.80;6.18;;;;;;;27.19;56.96;65873.31;5054084;28;20761;-53
2023/08/05 07:20:06;;;;;;;8.23;6.75;;;;;;;27.45;55.57;65902.22;5053567;28;20216;-53
2023/08/05 07:22:31;;;;;;;7.88;6.78;;;;;;;27.53;54.62;65910.56;5072188;28;20236;-53
2023/08/05 07:24:57;;;;;;;6.50;5.90;;;;;;;27.47;53.31;65907.03;5071951;28;20201;-52
2023/08/05 07:27:22;;;;;;;6.97;6.10;;;;;;;27.61;52.00;65916.88;5072192;28;20297;-53
2023/08/05 07:29:48;;;;;;;7.22;6.53;;;;;;;27.23;53.39;65877.75;5071852;28;20208;-53
2023/08/05 07:32:14;;;;;;;7.28;6.57;;;;;;;27.59;53.77;65915.22;5071891;28;20730;-53
2023/08/05 07:34:40;;;;;;;8.15;6.50;;;;;;;27.74;54.10;65931.31;5053686;28;20232;-52
2023/08/05 07:37:06;;;;;;;7.75;6.95;;;;;;;27.95;54.39;65954.69;5080327;22;20630;-53
2023/08/05 07:39:34;;;;;;;7.10;6.13;;;;;;;28.18;53.82;65983.44;5071682;28;20305;-52
2023/08/05 07:42:03;;;;;;;10.23;6.65;;;;;;;28.12;52.86;65976.75;5071533;28;20237;-52
2023/08/05 07:44:32;;;;;;;10.95;8.30;;;;;;;28.40;51.73;66004.22;5071520;28;20679;-53
2023/08/05 07:46:59;;;;;;;9.23;7.43;;;;;;;28.42;50.92;66007.00;5071596;28;20303;-53
2023/08/05 07:49:27;;;;;;;9.65;6.85;;;;;;;28.72;51.14;66042.44;5071330;28;20205;-53
2023/08/05 07:51:53;;;;;;;9.45;6.72;;;;;;;28.54;51.59;66022.94;5071756;28;20212;-52
2023/08/05 07:54:24;;;;;;;7.97;6.80;;;;;;;28.77;51.60;66048.00;5071817;28;20213;-54
2023/08/05 07:56:49;;;;;;;9.90;7.30;;;;;;;28.85;51.53;66057.47;5071539;28;20762;-53
2023/08/05 07:59:17;;;;;;;7.65;6.88;;;;;;;29.08;50.62;66081.97;5071412;28;20287;-52
2023/08/05 08:01:45;;;;;;;7.88;7.07;;;;;;;29.23;50.37;66099.22;5071661;28;20266;-53
2023/08/05 08:04:13;;;;;;;10.25;6.55;;;;;;;29.31;50.16;66105.53;5071247;28;20304;-52
2023/08/05 08:06:39;;;;;;;10.70;7.43;;;;;;;29.17;49.36;66092.56;5071029;28;20675;-59
2023/08/05 08:09:05;;;;;;;8.07;6.45;;;;;;;29.51;50.28;66127.81;5070992;28;20201;-52
2023/08/05 08:11:30;;;;;;;7.57;6.53;;;;;;;29.79;49.39;66155.88;5071046;28;20267;-53
2023/08/05 08:13:56;;;;;;;8.85;6.68;;;;;;;29.81;47.77;66163.31;5070965;28;20597;-52
2023/08/05 08:16:22;;;;;;;13.27;11.98;;;;;;;29.57;48.95;66134.50;5071150;28;20655;-54
2023/08/05 08:18:47;;;;;;;8.73;7.00;;;;;;;29.80;48.73;66159.59;5070973;28;20221;-53
2023/08/05 08:21:13;;;;;;;9.85;7.07;;;;;;;29.65;48.23;66145.47;5071372;28;20701;-54
2023/08/05 08:23:39;;;;;;;7.32;6.63;;;;;;;29.63;49.58;66143.25;5070790;28;20202;-52
2023/08/05 08:26:04;;;;;;;8.60;7.80;;;;;;;29.81;49.16;66163.88;5070811;28;20219;-52
2023/08/05 08:28:30;;;;;;;7.95;7.25;;;;;;;29.92;48.98;66172.41;5070585;28;20197;-52
2023/08/05 08:30:57;;;;;;;8.07;7.28;;;;;;;30.16;48.12;66201.75;5070825;28;20288;-52
2023/08/05 08:33:24;;;;;;;7.82;6.60;;;;;;;30.28;46.77;66215.13;5070832;28;20299;-54
2023/08/05 08:35:50;;;;;;;12.25;10.50;;;;;;;29.79;48.82;66161.09;5070764;28;20244;-52
2023/08/05 08:38:17;;;;;;;13.35;8.40;;;;;;;29.94;49.05;66177.78;5070655;28;20232;-54
2023/08/05 08:40:47;;;;;;;13.27;9.27;;;;;;;29.84;49.80;66164.63;5070869;28;20235;-54
2023/08/05 08:43:16;;;;;;;11.32;8.05;;;;;;;30.02;48.47;66180.97;5070601;28;20200;-53
2023/08/05 08:45:43;;;;;;;10.68;7.35;;;;;;;30.30;49.49;66214.78;5070522;28;20649;-53
2023/08/05 08:48:09;;;;;;;8.13;7.00;;;;;;;30.66;47.85;66254.91;5069559;28;20258;-52
2023/08/05 08:50:37;;;;;;;8.15;6.75;;;;;;;30.76;47.44;66265.50;5070520;28;20201;-53
2023/08/05 08:53:04;;;;;;;14.57;9.30;;;;;;;30.63;47.31;66251.56;5070239;28;20204;-53
2023/08/05 08:55:30;;;;;;;9.88;7.78;;;;;;;30.62;46.56;66250.47;5070317;28;20248;-53
2023/08/05 08:57:56;;;;;;;7.38;6.68;;;;;;;30.75;46.47;66264.38;5070184;28;20687;-55
2023/08/05 09:00:22;;;;;;;9.63;8.18;;;;;;;30.98;46.84;66290.63;5070515;28;20211;-53
2023/08/05 09:02:48;;;;;;;9.23;7.95;;;;;;;30.73;47.83;66262.72;5070817;28;20208;-53
2023/08/05 09:05:14;;;;;;;9.45;8.45;;;;;;;30.93;47.13;66285.03;5052454;28;20231;-53
2023/08/05 09:07:40;;;;;;;10.68;7.40;;;;;;;31.26;47.48;66321.28;5070445;28;20308;-54
2023/08/05 09:10:07;;;;;;;9.30;8.40;;;;;;;31.37;45.96;66333.56;5052605;28;20254;-53
2023/08/05 09:12:34;;;;;;;11.77;8.40;;;;;;;31.50;45.94;66350.69;5070627;28;20270;-53
2023/08/05 09:14:59;;;;;;;8.95;7.85;;;;;;;31.61;46.65;66359.78;5070107;28;20274;-56
2023/08/05 09:17:26;;;;;;;9.43;8.15;;;;;;;31.68;46.37;66368.16;5070511;28;20597;-53
2023/08/05 09:19:52;;;;;;;8.90;8.07;;;;;;;31.87;44.64;66388.81;5070033;28;20197;-52
2023/08/05 09:22:17;;;;;;;8.13;7.32;;;;;;;32.14;43.80;66418.94;5069936;28;20778;-59
2023/08/05 09:24:43;;;;;;;9.20;7.40;;;;;;;32.08;44.04;66410.22;5070035;28;20581;-53
2023/08/05 09:27:08;;;;;;;9.75;8.38;;;;;;;32.07;44.11;66411.16;5070102;28;20208;-52
2023/08/05 09:29:36;;;;;;;9.48;7.40;;;;;;;32.26;45.11;66430.28;5070248;28;20239;-53
2023/08/05 09:32:04;;;;;;;8.27;7.47;;;;;;;32.50;43.59;66459.19;5070325;28;20219;-52
2023/08/05 09:34:39;;;;;;;8.52;7.63;;;;;;;32.47;43.20;66453.22;5069994;28;20320;-53
2023/08/05 09:37:07;;;;;;;8.95;8.05;;;;;;;32.71;44.41;66482.63;5051762;28;20219;-53
2023/08/05 09:39:45;;;;;;;11.48;8.20;;;;;;;32.90;43.07;66500.66;5070401;28;20197;-52
2023/08/05 09:42:24;;;;;;;8.77;7.97;;;;;;;33.15;41.96;66530.69;5070122;28;20255;-54
2023/08/05 09:44:55;;;;;;;8.52;7.35;;;;;;;33.27;41.91;66542.00;5069865;28;20212;-53
2023/08/05 09:47:30;;;;;;;8.60;7.72;;;;;;;33.19;41.33;66535.16;5070115;28;20217;-52
2023/08/05 09:49:58;;;;;;;12.50;11.10;;;;;;;33.35;42.09;66553.03;5069682;28;20208;-53
2023/08/05 09:52:25;;;;;;;11.98;9.30;;;;;;;33.62;41.06;66583.75;5070091;28;20201;-53
2023/08/05 09:54:58;;;;;;;9.15;8.35;;;;;;;33.38;41.65;66556.94;5069935;28;20212;-53
2023/08/05 09:57:25;;;;;;;9.52;8.65;;;;;;;33.50;40.91;66567.75;5069557;28;20217;-54
2023/08/05 09:59:53;;;;;;;10.10;9.10;;;;;;;33.40;41.14;66559.16;5070296;28;20232;-53
2023/08/05 10:02:25;;;;;;;9.82;8.88;;;;;;;33.83;40.38;66606.69;5072983;28;20216;-53
2023/08/05 10:04:56;;;;;;;11.43;7.38;;;;;;;33.86;41.08;66610.03;5073610;28;20196;-52
2023/08/05 10:07:27;;;;;;;9.45;8.25;;;;;;;34.24;39.71;66651.97;5055070;28;20212;-53
2023/08/05 10:09:54;;;;;;;8.98;7.10;;;;;;;34.40;39.74;66667.78;5054929;28;20197;-53
2023/08/05 10:12:29;;;;;;;11.23;10.15;;;;;;;34.33;39.06;66659.97;5073308;28;20221;-52
2023/08/05 10:14:57;;;;;;;8.35;6.70;;;;;;;34.57;39.25;66689.47;5073277;28;20240;-53
2023/08/05 10:20:12;;;;;;;10.40;7.00;;;;;;;34.17;38.57;66644.72;5073065;28;20211;-54
2023/08/05 10:22:39;;;;;;;8.02;6.78;;;;;;;34.64;38.15;66694.66;5054860;28;20208;-52
2023/08/05 10:25:06;;;;;;;11.50;7.55;;;;;;;34.88;39.29;66723.00;5072728;28;20197;-52
2023/08/05 10:27:41;;;;;;;7.85;7.05;;;;;;;34.95;38.80;66730.84;5054478;28;20227;-52
2023/08/05 10:30:09;;;;;;;7.38;6.55;;;;;;;35.08;38.65;66745.41;5072594;28;20287;-53
2023/08/05 10:32:48;;;;;;;14.65;7.45;;;;;;;34.86;39.01;66720.78;5072633;28;20810;-53
2023/08/05 10:35:32;;;;;;;8.38;7.35;;;;;;;34.78;37.83;66709.22;5073233;28;20212;-53
2023/08/05 10:38:15;;;;;;;7.53;6.75;;;;;;;35.45;37.55;66786.81;5072544;28;20208;-53
2023/08/05 10:40:47;;;;;;;8.85;8.05;;;;;;;35.82;37.61;66825.06;5072492;28;20219;-52
2023/08/05 10:43:41;;;;;;;7.85;7.03;;;;;;;35.97;36.06;66842.44;5072410;28;20249;-57
2023/08/05 10:46:06;;;;;;;9.02;7.13;;;;;;;35.55;36.63;66797.47;5072393;28;20241;-53
2023/08/05 10:48:38;;;;;;;8.25;7.45;;;;;;;35.89;36.27;66835.53;5072221;28;20204;-54
2023/08/05 10:51:18;;;;;;;11.88;6.82;;;;;;;35.67;35.99;66808.84;5062737;22;20295;-55
2023/08/05 10:54:04;;;;;;;10.23;7.82;;;;;;;36.12;35.78;66859.22;5072310;28;20227;-53
2023/08/05 10:56:34;;;;;;;10.30;8.20;;;;;;;36.08;35.27;66854.75;5072269;28;20237;-53
2023/08/05 10:59:01;;;;;;;9.85;7.18;;;;;;;36.24;36.12;66872.66;5072307;28;20208;-53
2023/08/05 11:01:52;;;;;;;8.13;7.32;;;;;;;36.38;35.82;66890.41;5072528;28;20216;-54
2023/08/05 11:04:28;;;;;;;6.95;6.25;;;;;;;36.22;35.48;66873.03;5072720;28;20655;-54
2023/08/05 11:06:55;;;;;;;8.98;7.15;;;;;;;36.03;35.68;66848.59;5072242;28;20208;-58
2023/08/05 11:09:22;;;;;;;10.48;7.13;;;;;;;36.23;35.93;66874.19;5071951;28;20224;-53
2023/08/05 11:11:51;;;;;;;10.70;7.63;;;;;;;36.54;36.06;66905.72;5071040;28;20208;-53
2023/08/05 11:14:19;;;;;;;8.35;7.50;;;;;;;36.63;35.24;66915.25;5071975;28;20277;-53
2023/08/05 11:16:46;;;;;;;7.60;6.90;;;;;;;36.80;35.56;66934.28;5071923;28;20212;-53
2023/08/05 11:19:12;;;;;;;11.05;7.05;;;;;;;36.87;35.11;66939.50;5072111;28;20193;-52
2023/08/05 11:21:38;;;;;;;9.55;6.50;;;;;;;36.84;34.48;66939.34;5072162;28;20213;-52
2023/08/05 11:24:04;;;;;;;8.82;7.50;;;;;;;36.54;35.03;66905.16;5053785;28;20232;-52
2023/08/05 11:26:30;;;;;;;7.03;6.32;;;;;;;36.85;34.88;66942.50;5072007;28;20287;-54
2023/08/05 11:29:00;;;;;;;9.52;6.47;;;;;;;36.82;35.08;66937.09;5071835;28;20666;-51
2023/08/05 11:31:27;;;;;;;9.63;7.03;;;;;;;36.82;35.17;66937.09;5053834;28;20294;-51
2023/08/05 11:33:53;;;;;;;9.63;6.57;;;;;;;36.75;34.61;66931.88;5071719;28;20193;-52